sensor_id;sensor_type;location;lat;lon;timestamp;P1;durP1;ratioP1;P2;durP2;ratioP2
4466;SDS011;2246;42.664;23.278;2023-03-11T00:02:08;11.45;;;5.97;;
4466;SDS011;2246;42.664;23.278;2023-03-11T00:04:34;6.07;;;3.40;;
4466;SDS011;2246;42.664;23.278;2023-03-11T00:07:00;6.00;;;2.97;;
4466;SDS011;2246;42.664;23.278;2023-03-11T00:09:26;3.70;;;1.98;;
4466;SDS011;2246;42.664;23.278;2023-03-11T00:11:52;5.88;;;1.83;;
4466;SDS011;2246;42.664;23.278;2023-03-11T00:14:19;2.58;;;1.10;;
4466;SDS011;2246;42.664;23.278;2023-03-11T00:16:45;1.75;;;1.02;;
4466;SDS011;2246;42.664;23.278;2023-03-11T00:19:11;1.15;;;0.80;;
4466;SDS011;2246;42.664;23.278;2023-03-11T00:21:37;1.80;;;0.90;;
4466;SDS011;2246;42.664;23.278;2023-03-11T00:24:03;5.40;;;1.00;;
4466;SDS011;2246;42.664;23.278;2023-03-11T00:26:29;2.25;;;1.08;;
4466;SDS011;2246;42.664;23.278;2023-03-11T00:28:56;3.63;;;1.40;;
4466;SDS011;2246;42.664;23.278;2023-03-11T00:31:22;2.55;;;1.23;;
4466;SDS011;2246;42.664;23.278;2023-03-11T00:33:50;1.83;;;0.80;;
4466;SDS011;2246;42.664;23.278;2023-03-11T00:36:27;3.75;;;1.10;;
4466;SDS011;2246;42.664;23.278;2023-03-11T00:38:55;1.65;;;0.80;;
4466;SDS011;2246;42.664;23.278;2023-03-11T00:41:21;2.17;;;0.98;;
4466;SDS011;2246;42.664;23.278;2023-03-11T00:43:47;1.05;;;0.80;;
4466;SDS011;2246;42.664;23.278;2023-03-11T00:46:13;3.13;;;1.10;;
4466;SDS011;2246;42.664;23.278;2023-03-11T00:48:40;1.83;;;1.00;;
4466;SDS011;2246;42.664;23.278;2023-03-11T00:51:06;1.00;;;0.90;;
4466;SDS011;2246;42.664;23.278;2023-03-11T00:53:32;2.35;;;1.10;;
4466;SDS011;2246;42.664;23.278;2023-03-11T00:56:04;1.33;;;0.90;;
4466;SDS011;2246;42.664;23.278;2023-03-11T00:58:30;3.33;;;0.90;;
4466;SDS011;2246;42.664;23.278;2023-03-11T01:00:57;1.42;;;0.90;;
4466;SDS011;2246;42.664;23.278;2023-03-11T01:03:23;3.63;;;1.00;;
4466;SDS011;2246;42.664;23.278;2023-03-11T01:05:49;1.83;;;0.95;;
4466;SDS011;2246;42.664;23.278;2023-03-11T01:08:15;2.10;;;1.50;;
4466;SDS011;2246;42.664;23.278;2023-03-11T01:10:41;1.58;;;1.30;;
4466;SDS011;2246;42.664;23.278;2023-03-11T01:13:07;4.07;;;1.95;;
4466;SDS011;2246;42.664;23.278;2023-03-11T01:15:34;2.10;;;1.73;;
4466;SDS011;2246;42.664;23.278;2023-03-11T01:18:01;3.05;;;1.88;;
4466;SDS011;2246;42.664;23.278;2023-03-11T01:20:27;2.10;;;1.73;;
4466;SDS011;2246;42.664;23.278;2023-03-11T01:22:53;2.10;;;1.50;;
4466;SDS011;2246;42.664;23.278;2023-03-11T01:25:20;2.58;;;1.90;;
4466;SDS011;2246;42.664;23.278;2023-03-11T01:27:47;3.42;;;2.78;;
4466;SDS011;2246;42.664;23.278;2023-03-11T01:30:15;3.28;;;2.13;;
4466;SDS011;2246;42.664;23.278;2023-03-11T01:32:41;4.55;;;2.25;;
4466;SDS011;2246;42.664;23.278;2023-03-11T01:35:09;2.05;;;1.48;;
4466;SDS011;2246;42.664;23.278;2023-03-11T01:37:36;2.05;;;1.35;;
4466;SDS011;2246;42.664;23.278;2023-03-11T01:40:02;2.22;;;1.40;;
4466;SDS011;2246;42.664;23.278;2023-03-11T01:42:28;4.78;;;1.10;;
4466;SDS011;2246;42.664;23.278;2023-03-11T01:44:54;2.55;;;1.35;;
4466;SDS011;2246;42.664;23.278;2023-03-11T01:47:54;2.17;;;1.33;;
4466;SDS011;2246;42.664;23.278;2023-03-11T01:50:13;2.80;;;1.60;;
4466;SDS011;2246;42.664;23.278;2023-03-11T01:52:39;3.60;;;1.55;;
4466;SDS011;2246;42.664;23.278;2023-03-11T01:55:05;2.85;;;2.03;;
4466;SDS011;2246;42.664;23.278;2023-03-11T01:57:32;2.80;;;1.60;;
4466;SDS011;2246;42.664;23.278;2023-03-11T01:59:58;4.78;;;2.08;;
4466;SDS011;2246;42.664;23.278;2023-03-11T02:02:30;8.95;;;2.05;;
4466;SDS011;2246;42.664;23.278;2023-03-11T02:04:58;4.70;;;2.03;;
4466;SDS011;2246;42.664;23.278;2023-03-11T02:07:26;3.47;;;1.60;;
4466;SDS011;2246;42.664;23.278;2023-03-11T02:09:52;4.55;;;1.85;;
4466;SDS011;2246;42.664;23.278;2023-03-11T02:12:18;5.53;;;2.30;;
4466;SDS011;2246;42.664;23.278;2023-03-11T02:14:46;7.43;;;2.20;;
4466;SDS011;2246;42.664;23.278;2023-03-11T02:17:12;2.65;;;2.05;;
4466;SDS011;2246;42.664;23.278;2023-03-11T02:22:14;3.67;;;1.83;;
4466;SDS011;2246;42.664;23.278;2023-03-11T02:27:19;0.90;;;0.68;;
4466;SDS011;2246;42.664;23.278;2023-03-11T02:29:46;1.88;;;0.88;;
4466;SDS011;2246;42.664;23.278;2023-03-11T02:32:13;0.93;;;0.70;;
4466;SDS011;2246;42.664;23.278;2023-03-11T02:34:40;0.75;;;0.50;;
4466;SDS011;2246;42.664;23.278;2023-03-11T02:37:07;0.95;;;0.70;;
4466;SDS011;2246;42.664;23.278;2023-03-11T02:39:34;0.52;;;0.52;;
4466;SDS011;2246;42.664;23.278;2023-03-11T02:42:03;0.65;;;0.60;;
4466;SDS011;2246;42.664;23.278;2023-03-11T02:44:30;3.03;;;0.82;;
4466;SDS011;2246;42.664;23.278;2023-03-11T02:46:56;2.40;;;1.23;;
4466;SDS011;2246;42.664;23.278;2023-03-11T02:49:23;1.52;;;0.80;;
4466;SDS011;2246;42.664;23.278;2023-03-11T02:51:49;1.90;;;0.80;;
4466;SDS011;2246;42.664;23.278;2023-03-11T02:54:16;0.85;;;0.70;;
4466;SDS011;2246;42.664;23.278;2023-03-11T02:56:42;1.60;;;0.50;;
4466;SDS011;2246;42.664;23.278;2023-03-11T02:59:08;1.75;;;0.70;;
4466;SDS011;2246;42.664;23.278;2023-03-11T03:01:34;2.05;;;0.80;;
4466;SDS011;2246;42.664;23.278;2023-03-11T03:04:00;2.33;;;1.00;;
4466;SDS011;2246;42.664;23.278;2023-03-11T03:06:26;1.42;;;1.05;;
4466;SDS011;2246;42.664;23.278;2023-03-11T03:08:53;1.65;;;0.90;;
4466;SDS011;2246;42.664;23.278;2023-03-11T03:11:19;1.90;;;0.80;;
4466;SDS011;2246;42.664;23.278;2023-03-11T03:13:45;2.05;;;0.73;;
4466;SDS011;2246;42.664;23.278;2023-03-11T03:16:11;0.50;;;0.50;;
4466;SDS011;2246;42.664;23.278;2023-03-11T03:18:37;0.35;;;0.35;;
4466;SDS011;2246;42.664;23.278;2023-03-11T03:21:03;0.57;;;0.55;;
4466;SDS011;2246;42.664;23.278;2023-03-11T03:23:29;1.17;;;0.63;;
4466;SDS011;2246;42.664;23.278;2023-03-11T03:26:01;1.23;;;0.85;;
4466;SDS011;2246;42.664;23.278;2023-03-11T03:28:27;1.25;;;0.60;;
4466;SDS011;2246;42.664;23.278;2023-03-11T03:30:53;1.50;;;0.77;;
4466;SDS011;2246;42.664;23.278;2023-03-11T03:33:20;1.85;;;1.02;;
4466;SDS011;2246;42.664;23.278;2023-03-11T03:35:46;1.70;;;0.70;;
4466;SDS011;2246;42.664;23.278;2023-03-11T03:38:12;1.02;;;0.60;;
4466;SDS011;2246;42.664;23.278;2023-03-11T03:40:38;1.75;;;1.13;;
4466;SDS011;2246;42.664;23.278;2023-03-11T03:43:04;0.47;;;0.40;;
4466;SDS011;2246;42.664;23.278;2023-03-11T03:45:30;1.13;;;0.80;;
4466;SDS011;2246;42.664;23.278;2023-03-11T03:47:56;0.65;;;0.50;;
4466;SDS011;2246;42.664;23.278;2023-03-11T03:50:23;0.70;;;0.60;;
4466;SDS011;2246;42.664;23.278;2023-03-11T03:52:49;0.93;;;0.40;;
4466;SDS011;2246;42.664;23.278;2023-03-11T03:55:15;2.03;;;0.93;;
4466;SDS011;2246;42.664;23.278;2023-03-11T03:57:41;0.80;;;0.60;;
4466;SDS011;2246;42.664;23.278;2023-03-11T04:00:07;0.55;;;0.50;;
4466;SDS011;2246;42.664;23.278;2023-03-11T04:02:33;1.02;;;0.65;;
4466;SDS011;2246;42.664;23.278;2023-03-11T04:04:59;1.85;;;0.55;;
4466;SDS011;2246;42.664;23.278;2023-03-11T04:07:26;0.75;;;0.60;;
4466;SDS011;2246;42.664;23.278;2023-03-11T04:09:52;0.40;;;0.40;;
4466;SDS011;2246;42.664;23.278;2023-03-11T04:12:18;0.50;;;0.50;;
4466;SDS011;2246;42.664;23.278;2023-03-11T04:14:44;0.90;;;0.57;;
4466;SDS011;2246;42.664;23.278;2023-03-11T04:17:11;1.30;;;0.73;;
4466;SDS011;2246;42.664;23.278;2023-03-11T04:19:37;0.80;;;0.70;;
4466;SDS011;2246;42.664;23.278;2023-03-11T04:22:03;1.05;;;0.65;;
4466;SDS011;2246;42.664;23.278;2023-03-11T04:24:30;2.67;;;0.50;;
4466;SDS011;2246;42.664;23.278;2023-03-11T04:26:56;5.55;;;2.67;;
4466;SDS011;2246;42.664;23.278;2023-03-11T04:29:22;5.60;;;2.80;;
4466;SDS011;2246;42.664;23.278;2023-03-11T04:31:48;3.58;;;1.75;;
4466;SDS011;2246;42.664;23.278;2023-03-11T04:34:14;2.75;;;1.60;;
4466;SDS011;2246;42.664;23.278;2023-03-11T04:36:40;1.73;;;0.80;;
4466;SDS011;2246;42.664;23.278;2023-03-11T04:39:07;0.47;;;0.47;;
4466;SDS011;2246;42.664;23.278;2023-03-11T04:41:33;0.63;;;0.52;;
4466;SDS011;2246;42.664;23.278;2023-03-11T04:43:59;0.57;;;0.50;;
4466;SDS011;2246;42.664;23.278;2023-03-11T04:46:25;0.70;;;0.60;;
4466;SDS011;2246;42.664;23.278;2023-03-11T04:48:51;0.50;;;0.50;;
4466;SDS011;2246;42.664;23.278;2023-03-11T04:51:18;0.52;;;0.52;;
4466;SDS011;2246;42.664;23.278;2023-03-11T04:53:44;2.13;;;0.68;;
4466;SDS011;2246;42.664;23.278;2023-03-11T04:56:10;0.60;;;0.60;;
4466;SDS011;2246;42.664;23.278;2023-03-11T04:58:36;1.17;;;0.70;;
4466;SDS011;2246;42.664;23.278;2023-03-11T05:01:02;3.42;;;1.50;;
4466;SDS011;2246;42.664;23.278;2023-03-11T05:03:28;5.78;;;2.20;;
4466;SDS011;2246;42.664;23.278;2023-03-11T05:05:54;3.85;;;1.45;;
4466;SDS011;2246;42.664;23.278;2023-03-11T05:08:21;3.72;;;1.65;;
4466;SDS011;2246;42.664;23.278;2023-03-11T05:10:47;5.50;;;2.03;;
4466;SDS011;2246;42.664;23.278;2023-03-11T05:13:13;9.60;;;2.60;;
4466;SDS011;2246;42.664;23.278;2023-03-11T05:15:39;9.77;;;2.63;;
4466;SDS011;2246;42.664;23.278;2023-03-11T05:18:06;3.17;;;1.23;;
4466;SDS011;2246;42.664;23.278;2023-03-11T05:20:32;1.45;;;0.75;;
4466;SDS011;2246;42.664;23.278;2023-03-11T05:22:58;2.05;;;0.70;;
4466;SDS011;2246;42.664;23.278;2023-03-11T05:25:25;0.57;;;0.50;;
4466;SDS011;2246;42.664;23.278;2023-03-11T05:27:51;2.22;;;0.50;;
4466;SDS011;2246;42.664;23.278;2023-03-11T05:30:17;0.57;;;0.57;;
4466;SDS011;2246;42.664;23.278;2023-03-11T05:32:43;0.50;;;0.50;;
4466;SDS011;2246;42.664;23.278;2023-03-11T05:35:09;2.35;;;0.73;;
4466;SDS011;2246;42.664;23.278;2023-03-11T05:37:35;3.63;;;0.93;;
4466;SDS011;2246;42.664;23.278;2023-03-11T05:40:03;1.88;;;0.77;;
4466;SDS011;2246;42.664;23.278;2023-03-11T05:42:30;1.38;;;0.70;;
4466;SDS011;2246;42.664;23.278;2023-03-11T05:44:56;1.67;;;0.70;;
4466;SDS011;2246;42.664;23.278;2023-03-11T05:47:23;3.60;;;0.73;;
4466;SDS011;2246;42.664;23.278;2023-03-11T05:49:49;0.98;;;0.60;;
4466;SDS011;2246;42.664;23.278;2023-03-11T05:52:15;2.53;;;0.80;;
4466;SDS011;2246;42.664;23.278;2023-03-11T05:54:41;1.00;;;0.80;;
4466;SDS011;2246;42.664;23.278;2023-03-11T05:57:07;1.17;;;0.47;;
4466;SDS011;2246;42.664;23.278;2023-03-11T05:59:33;0.73;;;0.60;;
4466;SDS011;2246;42.664;23.278;2023-03-11T06:04:27;0.63;;;0.60;;
4466;SDS011;2246;42.664;23.278;2023-03-11T06:06:53;1.30;;;0.80;;
4466;SDS011;2246;42.664;23.278;2023-03-11T06:09:19;3.83;;;1.00;;
4466;SDS011;2246;42.664;23.278;2023-03-11T06:11:45;2.35;;;1.23;;
4466;SDS011;2246;42.664;23.278;2023-03-11T06:14:12;2.30;;;1.05;;
4466;SDS011;2246;42.664;23.278;2023-03-11T06:16:38;2.25;;;1.40;;
4466;SDS011;2246;42.664;23.278;2023-03-11T06:19:05;3.55;;;1.60;;
4466;SDS011;2246;42.664;23.278;2023-03-11T06:21:31;4.10;;;2.13;;
4466;SDS011;2246;42.664;23.278;2023-03-11T06:23:57;2.67;;;1.30;;
4466;SDS011;2246;42.664;23.278;2023-03-11T06:26:23;2.10;;;1.08;;
4466;SDS011;2246;42.664;23.278;2023-03-11T06:28:50;1.63;;;1.17;;
4466;SDS011;2246;42.664;23.278;2023-03-11T06:31:18;1.67;;;0.90;;
4466;SDS011;2246;42.664;23.278;2023-03-11T06:33:44;3.42;;;1.70;;
4466;SDS011;2246;42.664;23.278;2023-03-11T06:36:11;5.30;;;2.05;;
4466;SDS011;2246;42.664;23.278;2023-03-11T06:38:38;2.08;;;1.17;;
4466;SDS011;2246;42.664;23.278;2023-03-11T06:41:04;2.92;;;0.82;;
4466;SDS011;2246;42.664;23.278;2023-03-11T06:43:31;1.65;;;0.90;;
4466;SDS011;2246;42.664;23.278;2023-03-11T06:45:57;0.70;;;0.60;;
4466;SDS011;2246;42.664;23.278;2023-03-11T06:48:23;4.88;;;1.50;;
4466;SDS011;2246;42.664;23.278;2023-03-11T06:50:56;4.97;;;1.60;;
4466;SDS011;2246;42.664;23.278;2023-03-11T06:53:23;2.80;;;1.00;;
4466;SDS011;2246;42.664;23.278;2023-03-11T06:56:05;4.93;;;1.70;;
4466;SDS011;2246;42.664;23.278;2023-03-11T06:58:32;5.72;;;2.33;;
4466;SDS011;2246;42.664;23.278;2023-03-11T07:01:06;7.68;;;2.53;;
4466;SDS011;2246;42.664;23.278;2023-03-11T07:03:33;3.35;;;1.70;;
4466;SDS011;2246;42.664;23.278;2023-03-11T07:05:59;6.22;;;1.73;;
4466;SDS011;2246;42.664;23.278;2023-03-11T07:08:25;11.30;;;3.03;;
4466;SDS011;2246;42.664;23.278;2023-03-11T07:11:02;6.45;;;2.30;;
4466;SDS011;2246;42.664;23.278;2023-03-11T07:13:29;6.47;;;1.55;;
4466;SDS011;2246;42.664;23.278;2023-03-11T07:16:29;2.53;;;1.30;;
4466;SDS011;2246;42.664;23.278;2023-03-11T07:18:48;3.17;;;1.65;;
4466;SDS011;2246;42.664;23.278;2023-03-11T07:21:15;1.67;;;0.95;;
4466;SDS011;2246;42.664;23.278;2023-03-11T07:23:41;2.53;;;0.90;;
4466;SDS011;2246;42.664;23.278;2023-03-11T07:26:08;2.47;;;1.15;;
4466;SDS011;2246;42.664;23.278;2023-03-11T07:28:35;5.13;;;1.07;;
4466;SDS011;2246;42.664;23.278;2023-03-11T07:31:05;3.25;;;1.20;;
4466;SDS011;2246;42.664;23.278;2023-03-11T07:33:31;2.47;;;0.90;;
4466;SDS011;2246;42.664;23.278;2023-03-11T07:35:58;1.75;;;0.95;;
4466;SDS011;2246;42.664;23.278;2023-03-11T07:38:24;1.25;;;0.88;;
4466;SDS011;2246;42.664;23.278;2023-03-11T07:40:56;4.13;;;1.58;;
4466;SDS011;2246;42.664;23.278;2023-03-11T07:43:22;1.42;;;0.90;;
4466;SDS011;2246;42.664;23.278;2023-03-11T07:45:48;3.45;;;1.05;;
4466;SDS011;2246;42.664;23.278;2023-03-11T07:48:15;4.28;;;1.50;;
4466;SDS011;2246;42.664;23.278;2023-03-11T07:50:41;2.95;;;1.30;;
4466;SDS011;2246;42.664;23.278;2023-03-11T07:53:07;2.28;;;0.98;;
4466;SDS011;2246;42.664;23.278;2023-03-11T07:55:33;1.88;;;0.82;;
4466;SDS011;2246;42.664;23.278;2023-03-11T07:57:59;1.30;;;0.90;;
4466;SDS011;2246;42.664;23.278;2023-03-11T08:00:25;2.38;;;0.90;;
4466;SDS011;2246;42.664;23.278;2023-03-11T08:02:51;1.23;;;0.82;;
4466;SDS011;2246;42.664;23.278;2023-03-11T08:05:18;1.27;;;0.80;;
4466;SDS011;2246;42.664;23.278;2023-03-11T08:07:45;1.00;;;0.85;;
4466;SDS011;2246;42.664;23.278;2023-03-11T08:10:11;1.98;;;1.10;;
4466;SDS011;2246;42.664;23.278;2023-03-11T08:12:37;2.72;;;1.10;;
4466;SDS011;2246;42.664;23.278;2023-03-11T08:15:03;1.75;;;0.90;;
4466;SDS011;2246;42.664;23.278;2023-03-11T08:17:29;2.72;;;1.02;;
4466;SDS011;2246;42.664;23.278;2023-03-11T08:19:56;5.50;;;1.50;;
4466;SDS011;2246;42.664;23.278;2023-03-11T08:22:22;1.15;;;1.00;;
4466;SDS011;2246;42.664;23.278;2023-03-11T08:24:51;1.77;;;1.02;;
4466;SDS011;2246;42.664;23.278;2023-03-11T08:27:17;2.20;;;1.00;;
4466;SDS011;2246;42.664;23.278;2023-03-11T08:29:43;3.40;;;1.13;;
4466;SDS011;2246;42.664;23.278;2023-03-11T08:32:09;2.20;;;1.00;;
4466;SDS011;2246;42.664;23.278;2023-03-11T08:34:36;1.98;;;1.08;;
4466;SDS011;2246;42.664;23.278;2023-03-11T08:37:03;1.48;;;0.80;;
4466;SDS011;2246;42.664;23.278;2023-03-11T08:39:29;3.90;;;1.20;;
4466;SDS011;2246;42.664;23.278;2023-03-11T08:41:55;3.40;;;1.10;;
4466;SDS011;2246;42.664;23.278;2023-03-11T08:46:49;3.90;;;1.10;;
4466;SDS011;2246;42.664;23.278;2023-03-11T08:49:15;2.33;;;1.05;;
4466;SDS011;2246;42.664;23.278;2023-03-11T08:51:41;5.45;;;1.08;;
4466;SDS011;2246;42.664;23.278;2023-03-11T08:54:07;2.75;;;1.52;;
4466;SDS011;2246;42.664;23.278;2023-03-11T08:56:34;3.15;;;1.30;;
4466;SDS011;2246;42.664;23.278;2023-03-11T08:59:00;3.58;;;1.50;;
4466;SDS011;2246;42.664;23.278;2023-03-11T09:01:26;2.58;;;1.10;;
4466;SDS011;2246;42.664;23.278;2023-03-11T09:03:54;5.05;;;1.55;;
4466;SDS011;2246;42.664;23.278;2023-03-11T09:06:20;2.85;;;1.27;;
4466;SDS011;2246;42.664;23.278;2023-03-11T09:08:46;9.20;;;1.65;;
4466;SDS011;2246;42.664;23.278;2023-03-11T09:11:13;7.20;;;1.52;;
4466;SDS011;2246;42.664;23.278;2023-03-11T09:13:40;5.13;;;1.35;;
4466;SDS011;2246;42.664;23.278;2023-03-11T09:16:07;12.10;;;2.20;;
4466;SDS011;2246;42.664;23.278;2023-03-11T09:21:00;5.63;;;1.92;;
4466;SDS011;2246;42.664;23.278;2023-03-11T09:23:26;5.32;;;2.15;;
4466;SDS011;2246;42.664;23.278;2023-03-11T09:25:52;2.85;;;0.90;;
4466;SDS011;2246;42.664;23.278;2023-03-11T09:28:18;1.90;;;1.00;;
4466;SDS011;2246;42.664;23.278;2023-03-11T09:30:44;4.60;;;2.50;;
4466;SDS011;2246;42.664;23.278;2023-03-11T09:33:11;3.70;;;2.20;;
4466;SDS011;2246;42.664;23.278;2023-03-11T09:35:37;3.55;;;1.10;;
4466;SDS011;2246;42.664;23.278;2023-03-11T09:38:03;2.53;;;0.93;;
4466;SDS011;2246;42.664;23.278;2023-03-11T09:41:06;5.55;;;1.15;;
4466;SDS011;2246;42.664;23.278;2023-03-11T09:43:28;4.40;;;1.42;;
4466;SDS011;2246;42.664;23.278;2023-03-11T09:46:01;3.75;;;1.65;;
4466;SDS011;2246;42.664;23.278;2023-03-11T09:48:36;2.03;;;1.08;;
4466;SDS011;2246;42.664;23.278;2023-03-11T09:51:07;2.50;;;1.40;;
4466;SDS011;2246;42.664;23.278;2023-03-11T09:53:42;2.53;;;1.27;;
4466;SDS011;2246;42.664;23.278;2023-03-11T09:56:09;3.85;;;1.02;;
4466;SDS011;2246;42.664;23.278;2023-03-11T10:01:10;2.45;;;1.20;;
4466;SDS011;2246;42.664;23.278;2023-03-11T10:03:38;1.17;;;0.82;;
4466;SDS011;2246;42.664;23.278;2023-03-11T10:06:15;3.70;;;1.13;;
4466;SDS011;2246;42.664;23.278;2023-03-11T10:13:44;4.65;;;1.60;;
4466;SDS011;2246;42.664;23.278;2023-03-11T10:16:32;3.40;;;1.05;;
4466;SDS011;2246;42.664;23.278;2023-03-11T10:24:12;11.00;;;2.80;;
4466;SDS011;2246;42.664;23.278;2023-03-11T10:26:44;6.18;;;1.98;;
4466;SDS011;2246;42.664;23.278;2023-03-11T10:31:53;2.13;;;1.13;;
4466;SDS011;2246;42.664;23.278;2023-03-11T10:34:29;1.70;;;1.00;;
4466;SDS011;2246;42.664;23.278;2023-03-11T10:37:02;2.30;;;0.98;;
4466;SDS011;2246;42.664;23.278;2023-03-11T10:39:31;3.25;;;1.75;;
4466;SDS011;2246;42.664;23.278;2023-03-11T10:42:01;3.08;;;0.80;;
4466;SDS011;2246;42.664;23.278;2023-03-11T10:44:34;1.58;;;0.80;;
4466;SDS011;2246;42.664;23.278;2023-03-11T10:47:01;2.50;;;1.13;;
4466;SDS011;2246;42.664;23.278;2023-03-11T10:49:28;2.55;;;1.15;;
4466;SDS011;2246;42.664;23.278;2023-03-11T10:51:54;2.67;;;1.27;;
4466;SDS011;2246;42.664;23.278;2023-03-11T10:56:53;2.13;;;1.30;;
4466;SDS011;2246;42.664;23.278;2023-03-11T11:01:59;1.40;;;0.90;;
4466;SDS011;2246;42.664;23.278;2023-03-11T11:04:34;1.90;;;0.90;;
4466;SDS011;2246;42.664;23.278;2023-03-11T11:09:45;2.30;;;1.25;;
4466;SDS011;2246;42.664;23.278;2023-03-11T11:12:15;1.92;;;0.93;;
4466;SDS011;2246;42.664;23.278;2023-03-11T11:14:49;4.75;;;1.00;;
4466;SDS011;2246;42.664;23.278;2023-03-11T11:19:50;2.42;;;1.00;;
4466;SDS011;2246;42.664;23.278;2023-03-11T11:22:18;2.15;;;1.15;;
4466;SDS011;2246;42.664;23.278;2023-03-11T11:24:45;4.15;;;1.65;;
4466;SDS011;2246;42.664;23.278;2023-03-11T11:27:19;2.97;;;1.42;;
4466;SDS011;2246;42.664;23.278;2023-03-11T11:29:46;4.00;;;1.42;;
4466;SDS011;2246;42.664;23.278;2023-03-11T11:32:45;3.45;;;1.20;;
4466;SDS011;2246;42.664;23.278;2023-03-11T11:35:11;2.42;;;0.90;;
4466;SDS011;2246;42.664;23.278;2023-03-11T11:37:39;2.95;;;1.20;;
4466;SDS011;2246;42.664;23.278;2023-03-11T11:40:16;2.58;;;1.23;;
4466;SDS011;2246;42.664;23.278;2023-03-11T11:42:50;6.47;;;1.63;;
4466;SDS011;2246;42.664;23.278;2023-03-11T11:45:28;5.07;;;1.23;;
4466;SDS011;2246;42.664;23.278;2023-03-11T11:48:00;4.28;;;1.20;;
4466;SDS011;2246;42.664;23.278;2023-03-11T11:50:32;7.95;;;2.55;;
4466;SDS011;2246;42.664;23.278;2023-03-11T11:53:09;2.83;;;1.42;;
4466;SDS011;2246;42.664;23.278;2023-03-11T11:55:37;3.67;;;1.10;;
4466;SDS011;2246;42.664;23.278;2023-03-11T11:58:06;4.15;;;1.40;;
4466;SDS011;2246;42.664;23.278;2023-03-11T12:01:17;2.58;;;0.93;;
4466;SDS011;2246;42.664;23.278;2023-03-11T12:05:57;1.55;;;1.00;;
4466;SDS011;2246;42.664;23.278;2023-03-11T12:11:00;4.13;;;1.00;;
4466;SDS011;2246;42.664;23.278;2023-03-11T12:18:55;7.88;;;1.30;;
4466;SDS011;2246;42.664;23.278;2023-03-11T12:26:53;3.13;;;1.17;;
4466;SDS011;2246;42.664;23.278;2023-03-11T12:29:33;7.45;;;1.52;;
4466;SDS011;2246;42.664;23.278;2023-03-11T12:32:00;3.45;;;1.08;;
4466;SDS011;2246;42.664;23.278;2023-03-11T12:34:27;3.47;;;1.30;;
4466;SDS011;2246;42.664;23.278;2023-03-11T12:36:55;6.35;;;1.30;;
4466;SDS011;2246;42.664;23.278;2023-03-11T12:41:48;2.45;;;1.08;;
4466;SDS011;2246;42.664;23.278;2023-03-11T12:44:34;4.60;;;0.95;;
4466;SDS011;2246;42.664;23.278;2023-03-11T12:47:22;2.35;;;1.10;;
4466;SDS011;2246;42.664;23.278;2023-03-11T12:49:48;3.22;;;1.13;;
4466;SDS011;2246;42.664;23.278;2023-03-11T12:54:48;4.85;;;1.10;;
4466;SDS011;2246;42.664;23.278;2023-03-11T12:57:47;3.92;;;1.27;;
4466;SDS011;2246;42.664;23.278;2023-03-11T13:05:26;6.10;;;1.90;;
4466;SDS011;2246;42.664;23.278;2023-03-11T13:10:33;3.55;;;1.40;;
4466;SDS011;2246;42.664;23.278;2023-03-11T13:13:00;4.35;;;1.70;;
4466;SDS011;2246;42.664;23.278;2023-03-11T13:15:32;3.90;;;1.48;;
4466;SDS011;2246;42.664;23.278;2023-03-11T13:20:48;5.05;;;1.73;;
4466;SDS011;2246;42.664;23.278;2023-03-11T13:23:34;5.55;;;1.40;;
4466;SDS011;2246;42.664;23.278;2023-03-11T13:33:24;7.22;;;2.60;;
4466;SDS011;2246;42.664;23.278;2023-03-11T13:36:05;2.10;;;1.08;;
4466;SDS011;2246;42.664;23.278;2023-03-11T13:38:37;2.22;;;0.80;;
4466;SDS011;2246;42.664;23.278;2023-03-11T13:41:22;2.92;;;1.17;;
4466;SDS011;2246;42.664;23.278;2023-03-11T13:43:49;2.80;;;0.90;;
4466;SDS011;2246;42.664;23.278;2023-03-11T13:46:26;4.93;;;1.20;;
4466;SDS011;2246;42.664;23.278;2023-03-11T13:48:55;4.10;;;1.02;;
4466;SDS011;2246;42.664;23.278;2023-03-11T13:51:43;3.00;;;1.10;;
4466;SDS011;2246;42.664;23.278;2023-03-11T13:56:45;2.72;;;1.30;;
4466;SDS011;2246;42.664;23.278;2023-03-11T14:01:52;3.20;;;1.42;;
4466;SDS011;2246;42.664;23.278;2023-03-11T14:04:19;1.95;;;1.20;;
4466;SDS011;2246;42.664;23.278;2023-03-11T14:06:48;1.40;;;1.20;;
4466;SDS011;2246;42.664;23.278;2023-03-11T14:09:19;5.95;;;2.53;;
4466;SDS011;2246;42.664;23.278;2023-03-11T14:11:45;4.70;;;2.45;;
4466;SDS011;2246;42.664;23.278;2023-03-11T14:14:33;4.18;;;2.10;;
4466;SDS011;2246;42.664;23.278;2023-03-11T14:17:05;6.60;;;2.97;;
4466;SDS011;2246;42.664;23.278;2023-03-11T14:19:31;6.23;;;2.53;;
4466;SDS011;2246;42.664;23.278;2023-03-11T14:21:57;6.38;;;2.72;;
4466;SDS011;2246;42.664;23.278;2023-03-11T14:24:25;7.75;;;2.40;;
4466;SDS011;2246;42.664;23.278;2023-03-11T14:26:51;7.65;;;2.47;;
4466;SDS011;2246;42.664;23.278;2023-03-11T14:29:29;5.28;;;2.30;;
4466;SDS011;2246;42.664;23.278;2023-03-11T14:31:56;6.28;;;1.90;;
4466;SDS011;2246;42.664;23.278;2023-03-11T14:34:23;4.30;;;1.65;;
4466;SDS011;2246;42.664;23.278;2023-03-11T14:36:52;5.03;;;2.10;;
4466;SDS011;2246;42.664;23.278;2023-03-11T14:41:45;3.30;;;1.73;;
4466;SDS011;2246;42.664;23.278;2023-03-11T14:44:11;4.72;;;2.30;;
4466;SDS011;2246;42.664;23.278;2023-03-11T14:46:38;4.72;;;1.42;;
4466;SDS011;2246;42.664;23.278;2023-03-11T14:49:04;5.22;;;1.95;;
4466;SDS011;2246;42.664;23.278;2023-03-11T14:51:31;3.35;;;1.50;;
4466;SDS011;2246;42.664;23.278;2023-03-11T14:54:21;5.00;;;2.08;;
4466;SDS011;2246;42.664;23.278;2023-03-11T14:56:47;4.33;;;2.00;;
4466;SDS011;2246;42.664;23.278;2023-03-11T14:59:27;5.90;;;2.10;;
4466;SDS011;2246;42.664;23.278;2023-03-11T15:01:56;5.38;;;1.90;;
4466;SDS011;2246;42.664;23.278;2023-03-11T15:06:51;2.92;;;1.60;;
4466;SDS011;2246;42.664;23.278;2023-03-11T15:09:18;3.47;;;2.03;;
4466;SDS011;2246;42.664;23.278;2023-03-11T15:11:51;4.35;;;1.73;;
4466;SDS011;2246;42.664;23.278;2023-03-11T15:14:31;2.65;;;1.90;;
4466;SDS011;2246;42.664;23.278;2023-03-11T15:17:08;6.13;;;2.15;;
4466;SDS011;2246;42.664;23.278;2023-03-11T15:19:35;8.23;;;4.03;;
4466;SDS011;2246;42.664;23.278;2023-03-11T15:22:44;6.43;;;2.90;;
4466;SDS011;2246;42.664;23.278;2023-03-11T15:24:58;5.00;;;2.22;;
4466;SDS011;2246;42.664;23.278;2023-03-11T15:29:54;3.60;;;2.33;;
4466;SDS011;2246;42.664;23.278;2023-03-11T15:32:24;6.50;;;3.28;;
4466;SDS011;2246;42.664;23.278;2023-03-11T15:35:12;3.85;;;2.55;;
4466;SDS011;2246;42.664;23.278;2023-03-11T15:37:39;7.40;;;3.25;;
4466;SDS011;2246;42.664;23.278;2023-03-11T15:40:09;6.23;;;2.80;;
4466;SDS011;2246;42.664;23.278;2023-03-11T15:42:36;9.73;;;3.10;;
4466;SDS011;2246;42.664;23.278;2023-03-11T15:47:36;9.00;;;3.63;;
4466;SDS011;2246;42.664;23.278;2023-03-11T15:50:24;7.35;;;3.30;;
4466;SDS011;2246;42.664;23.278;2023-03-11T15:52:49;4.97;;;2.00;;
4466;SDS011;2246;42.664;23.278;2023-03-11T15:55:15;5.00;;;2.63;;
4466;SDS011;2246;42.664;23.278;2023-03-11T16:00:19;8.50;;;4.38;;
4466;SDS011;2246;42.664;23.278;2023-03-11T16:02:46;9.13;;;5.68;;
4466;SDS011;2246;42.664;23.278;2023-03-11T16:05:17;6.65;;;4.40;;
4466;SDS011;2246;42.664;23.278;2023-03-11T16:07:43;7.97;;;4.00;;
4466;SDS011;2246;42.664;23.278;2023-03-11T16:10:11;10.77;;;4.93;;
4466;SDS011;2246;42.664;23.278;2023-03-11T16:12:37;10.15;;;5.47;;
4466;SDS011;2246;42.664;23.278;2023-03-11T16:15:03;11.02;;;5.80;;
4466;SDS011;2246;42.664;23.278;2023-03-11T16:17:30;16.10;;;8.45;;
4466;SDS011;2246;42.664;23.278;2023-03-11T16:19:56;8.02;;;5.15;;
4466;SDS011;2246;42.664;23.278;2023-03-11T16:22:24;8.02;;;5.97;;
4466;SDS011;2246;42.664;23.278;2023-03-11T16:24:52;6.10;;;3.40;;
4466;SDS011;2246;42.664;23.278;2023-03-11T16:27:18;12.43;;;4.72;;
4466;SDS011;2246;42.664;23.278;2023-03-11T16:29:44;14.40;;;7.30;;
4466;SDS011;2246;42.664;23.278;2023-03-11T16:32:11;6.90;;;3.88;;
4466;SDS011;2246;42.664;23.278;2023-03-11T16:34:37;4.35;;;2.40;;
4466;SDS011;2246;42.664;23.278;2023-03-11T16:37:04;6.30;;;2.80;;
4466;SDS011;2246;42.664;23.278;2023-03-11T16:39:31;3.85;;;2.70;;
4466;SDS011;2246;42.664;23.278;2023-03-11T16:41:57;3.95;;;2.53;;
4466;SDS011;2246;42.664;23.278;2023-03-11T16:44:23;2.78;;;2.30;;